Time;durP1;ratioP1;P1;durP2;ratioP2;P2;SDS_P1;SDS_P2;PMS_P1;PMS_P2;Temp;Humidity;BMP_temperature;BMP_pressure;BME280_temperature;BME280_humidity;BME280_pressure;Samples;Min_cycle;Max_cycle;Signal;HPM_P1;HPM_P2
2021/12/21 00:01:01;;;;;;;22.83;13.00;;;;;;;-0.51;81.46;102665.28;5093348;28;20028;-76
2021/12/21 00:03:26;;;;;;;26.53;12.70;;;;;;;-0.69;82.09;102632.84;5093306;28;20518;-77
2021/12/21 00:05:53;;;;;;;23.60;12.50;;;;;;;-0.49;81.28;102672.28;5093061;28;20055;-78
2021/12/21 00:08:19;;;;;;;27.80;13.13;;;;;;;-0.66;81.95;102650.31;5092975;28;20031;-80
2021/12/21 00:10:46;;;;;;;30.97;13.07;;;;;;;-0.50;81.31;102675.78;5093439;28;20107;-79
2021/12/21 00:16:11;;;;;;;28.30;13.20;;;;;;;-0.64;81.82;102666.88;5093210;28;20126;-77
2021/12/21 00:18:43;;;;;;;22.43;13.47;;;;;;;-0.64;82.01;102651.22;5092832;28;20059;-80
2021/12/21 00:24:13;;;;;;;23.07;12.50;;;;;;;-0.78;81.46;102643.19;5015903;28;20065;-78
2021/12/21 00:26:38;;;;;;;25.17;12.30;;;;;;;-0.66;81.30;102673.81;5017061;28;20033;-78
2021/12/21 00:29:04;;;;;;;22.47;12.17;;;;;;;-0.70;82.21;102653.75;5029335;28;20116;-78
2021/12/21 00:31:32;;;;;;;26.97;12.60;;;;;;;-0.66;82.10;102662.50;5025791;28;20045;-78
2021/12/21 00:33:59;;;;;;;27.43;12.73;;;;;;;-0.75;82.37;102663.25;5016823;28;20147;-79
2021/12/21 00:36:26;;;;;;;24.67;12.97;;;;;;;-0.76;82.08;102664.13;5016600;28;20044;-78
2021/12/21 00:38:54;;;;;;;26.63;12.63;;;;;;;-0.73;nan;102662.41;5010870;28;20046;-79
2021/12/21 00:41:20;;;;;;;27.37;11.97;;;;;;;-0.82;82.33;102638.78;5011216;28;20069;-78
2021/12/21 00:43:47;;;;;;;31.87;13.13;;;;;;;-0.71;81.39;102663.31;5028230;28;20528;-78
2021/12/21 00:46:13;;;;;;;24.40;13.10;;;;;;;-0.71;81.85;102652.88;5020981;28;20038;-79
2021/12/21 00:48:47;;;;;;;22.83;12.83;;;;;;;-0.94;81.88;102631.69;5012573;28;20037;-80
2021/12/21 00:51:13;;;;;;;27.87;12.67;;;;;;;-0.85;82.18;102635.25;5016027;28;20041;-78
2021/12/21 00:53:39;;;;;;;26.40;12.77;;;;;;;-0.91;82.07;102612.56;5021588;28;20033;-78
2021/12/21 00:56:05;;;;;;;27.17;13.33;;;;;;;-0.75;81.71;102644.97;5014502;28;20365;-79
2021/12/21 00:58:31;;;;;;;25.93;12.57;;;;;;;-0.89;81.55;102629.09;5065839;28;20054;-77
2021/12/21 01:00:57;;;;;;;24.03;12.73;;;;;;;-0.75;81.32;102652.81;5092025;28;20321;-77
2021/12/21 01:03:23;;;;;;;21.60;12.50;;;;;;;-1.03;80.68;102607.16;5092594;28;20063;-78
2021/12/21 01:05:59;;;;;;;28.70;12.50;;;;;;;-0.87;81.14;102643.06;5092362;28;20529;-79
2021/12/21 01:08:28;;;;;;;26.87;12.80;;;;;;;-0.88;80.64;102645.66;5091377;28;20028;-79
2021/12/21 01:16:05;;;;;;;24.80;13.43;;;;;;;-0.87;81.17;102657.88;5092482;28;20119;-78
2021/12/21 01:18:39;;;;;;;27.63;12.93;;;;;;;-0.97;80.94;102643.78;5088229;28;20044;-77
2021/12/21 01:21:11;;;;;;;23.30;12.57;;;;;;;-0.91;80.52;102646.50;5071805;28;20451;-77
2021/12/21 01:23:56;;;;;;;22.40;11.97;;;;;;;-0.97;81.21;102646.41;5072102;28;20024;-80
2021/12/21 01:29:17;;;;;;;23.30;12.27;;;;;;;-1.15;81.73;102644.41;5070407;28;20554;-78
2021/12/21 01:31:54;;;;;;;25.97;11.93;;;;;;;-1.13;81.16;102631.41;5071714;28;20387;-78
2021/12/21 01:35:09;;;;;;;27.57;12.33;;;;;;;-1.31;81.07;102604.19;5053635;28;20058;-77
2021/12/21 01:40:09;;;;;;;27.27;12.97;;;;;;;-1.07;81.99;102642.78;5072043;28;20032;-78
2021/12/21 01:42:50;;;;;;;27.10;12.77;;;;;;;-1.30;81.40;102615.50;5060290;28;20024;-77
2021/12/21 01:50:46;;;;;;;23.33;12.30;;;;;;;-1.20;81.67;102638.28;5071784;28;20797;-78
2021/12/21 01:53:12;;;;;;;25.83;13.60;;;;;;;-1.40;81.80;102606.66;5071360;28;20131;-79
2021/12/21 01:55:37;;;;;;;29.80;13.40;;;;;;;-1.30;81.86;102624.19;5053792;28;20041;-78
2021/12/21 01:58:02;;;;;;;20.83;12.67;;;;;;;-1.30;82.28;102623.31;5071737;28;20028;-80
2021/12/21 02:00:29;;;;;;;24.57;13.10;;;;;;;-1.37;82.14;102617.13;5074818;28;20129;-79
2021/12/21 02:02:55;;;;;;;25.63;12.10;;;;;;;-1.34;82.19;102617.19;5075244;28;20139;-79
2021/12/21 02:05:20;;;;;;;28.47;13.40;;;;;;;-1.31;82.13;102635.50;5074907;28;20028;-80
2021/12/21 02:07:45;;;;;;;25.63;13.37;;;;;;;-1.44;81.25;102613.56;5075242;28;20054;-81
2021/12/21 02:10:11;;;;;;;27.17;13.27;;;;;;;-1.38;81.09;102607.56;5075775;28;20024;-79
2021/12/21 02:12:36;;;;;;;30.67;13.33;;;;;;;-1.49;81.90;102593.47;5074619;28;20173;-77
2021/12/21 02:15:03;;;;;;;23.53;13.50;;;;;;;-1.53;81.76;102583.81;5075083;28;20463;-80
2021/12/21 02:20:07;;;;;;;22.92;12.93;;;;;;;-1.39;82.71;102614.50;5075319;28;20095;-77
2021/12/21 02:22:36;;;;;;;23.77;13.30;;;;;;;-1.36;82.31;102616.28;5056991;28;20032;-80
2021/12/21 02:25:35;;;;;;;29.60;14.53;;;;;;;-1.56;82.00;102587.25;5074861;28;20024;-80
2021/12/21 02:30:22;;;;;;;26.37;13.30;;;;;;;-1.43;81.52;102619.66;5075182;28;20031;-80
2021/12/21 02:32:48;;;;;;;26.57;13.53;;;;;;;-1.57;82.08;102611.59;5074579;28;20020;-78
2021/12/21 02:35:13;;;;;;;26.93;13.97;;;;;;;-1.44;81.53;102623.09;5074851;28;20021;-78
2021/12/21 02:37:39;;;;;;;31.67;13.97;;;;;;;-1.58;81.40;102588.13;5066853;28;20033;-77
2021/12/21 02:40:06;;;;;;;27.53;13.07;;;;;;;-1.49;81.36;102614.34;5069757;28;20104;-78
2021/12/21 02:42:31;;;;;;;22.43;12.90;;;;;;;-1.62;81.55;102592.38;5084800;28;20440;-79
2021/12/21 02:44:57;;;;;;;35.07;13.83;;;;;;;-1.50;81.93;102612.56;5074548;28;20099;-81
2021/12/21 02:47:22;;;;;;;31.73;13.37;;;;;;;-1.63;81.88;102595.88;5071631;28;20025;-78
2021/12/21 02:49:48;;;;;;;29.80;13.33;;;;;;;-1.68;81.33;102587.09;5074704;28;20024;-77
2021/12/21 02:52:13;;;;;;;26.33;14.07;;;;;;;-1.62;81.97;102598.50;5059199;28;20029;-78
2021/12/21 02:54:39;;;;;;;23.80;13.70;;;;;;;-1.57;81.70;102613.34;5071227;28;20090;-78
2021/12/21 02:57:04;;;;;;;27.33;13.70;;;;;;;-1.58;82.04;102612.47;5072935;28;20052;-81
2021/12/21 02:59:30;;;;;;;23.37;13.43;;;;;;;-1.57;82.00;102611.59;5047415;28;20384;-78
2021/12/21 03:01:55;;;;;;;26.27;13.73;;;;;;;-1.60;82.39;102603.75;5066984;28;20032;-78
2021/12/21 03:04:21;;;;;;;30.57;12.77;;;;;;;-1.62;82.20;102608.03;5062472;28;20055;-79
2021/12/21 03:07:29;;;;;;;27.87;13.50;;;;;;;-1.85;82.01;102574.66;5073813;28;20035;-80
2021/12/21 03:09:58;;;;;;;25.08;13.55;;;;;;;-1.80;81.47;102576.47;5071514;28;20493;-77
2021/12/21 03:14:51;;;;;;;25.80;14.00;;;;;;;-1.73;81.48;102605.28;5071825;28;20072;-79
2021/12/21 03:17:17;;;;;;;25.33;13.43;;;;;;;-1.67;81.61;102608.00;5073359;28;20067;-81
2021/12/21 03:19:42;;;;;;;27.60;14.50;;;;;;;-1.67;80.99;102601.91;5087537;28;20077;-76
2021/12/21 03:22:10;;;;;;;26.40;13.30;;;;;;;-1.70;81.61;102599.25;5094325;28;20063;-76
2021/12/21 03:24:35;;;;;;;20.93;12.83;;;;;;;-1.76;81.02;102597.41;5094183;28;20031;-78
2021/12/21 03:27:01;;;;;;;26.57;13.87;;;;;;;-1.82;81.52;102586.88;5093606;28;20348;-79
2021/12/21 03:29:27;;;;;;;27.80;14.47;;;;;;;-1.85;81.40;102585.09;5093736;28;20115;-78
2021/12/21 03:31:52;;;;;;;28.67;13.40;;;;;;;-1.74;81.28;102602.63;5093606;28;20024;-76
2021/12/21 03:34:18;;;;;;;28.50;14.03;;;;;;;-1.88;81.33;102581.56;5093717;28;20452;-78
2021/12/21 03:36:43;;;;;;;25.93;13.90;;;;;;;-1.88;81.44;102587.66;5093382;28;20119;-79
2021/12/21 03:39:16;;;;;;;30.40;14.03;;;;;;;-2.01;81.40;102569.16;5092085;28;20040;-79
2021/12/21 03:41:45;;;;;;;27.10;13.97;;;;;;;-2.07;81.63;102568.22;5093576;28;20421;-78
2021/12/21 03:44:11;;;;;;;31.45;13.75;;;;;;;-2.17;82.13;102545.47;5093875;28;20432;-78
2021/12/21 03:46:45;;;;;;;28.70;14.03;;;;;;;-1.91;82.18;102587.63;5093457;28;20035;-80
2021/12/21 03:49:48;;;;;;;26.37;15.03;;;;;;;-2.11;82.34;102569.03;5073662;28;20455;-79
2021/12/21 03:51:56;;;;;;;28.97;14.67;;;;;;;-1.97;81.92;102591.81;5083465;28;20128;-78
2021/12/21 03:54:22;;;;;;;30.93;14.27;;;;;;;-1.97;81.94;102597.03;5093377;28;20447;-77
2021/12/21 03:56:50;;;;;;;35.57;15.17;;;;;;;-1.95;81.72;102596.22;5093745;28;20063;-78
2021/12/21 03:59:15;;;;;;;26.30;14.47;;;;;;;-1.97;81.53;102586.59;5093132;28;20078;-79
2021/12/21 04:01:41;;;;;;;26.97;14.00;;;;;;;-2.04;81.49;102569.13;5093167;28;20032;-80
2021/12/21 04:04:08;;;;;;;33.10;14.63;;;;;;;-1.96;80.88;102593.59;5093776;28;20539;-81
2021/12/21 04:06:34;;;;;;;30.87;15.27;;;;;;;-2.00;81.04;102586.56;5092704;28;20027;-78
2021/12/21 04:09:00;;;;;;;28.70;13.70;;;;;;;-2.13;81.09;102578.53;5093552;28;20130;-79
2021/12/21 04:11:25;;;;;;;30.40;14.70;;;;;;;-2.22;81.37;102561.88;5092814;28;20051;-79
2021/12/21 04:13:50;;;;;;;31.83;15.73;;;;;;;-2.06;81.74;102584.72;5093392;28;20039;-81
2021/12/21 04:16:34;;;;;;;24.90;13.87;;;;;;;-2.42;81.59;102519.81;5092965;28;20526;-77
2021/12/21 04:19:00;;;;;;;28.00;14.40;;;;;;;-2.13;81.25;102578.53;5091833;28;20047;-80
2021/12/21 04:21:25;;;;;;;34.53;15.20;;;;;;;-2.30;81.37;102554.78;5092649;28;20020;-78
2021/12/21 04:23:51;;;;;;;26.93;15.30;;;;;;;-2.17;81.19;102587.16;5093148;28;20020;-77
2021/12/21 04:26:17;;;;;;;27.93;14.27;;;;;;;-2.22;81.70;102572.28;5092605;28;20028;-76
2021/12/21 04:28:43;;;;;;;29.57;14.90;;;;;;;-2.18;81.34;102587.13;5091449;28;20020;-80
2021/12/21 04:31:10;;;;;;;29.37;14.10;;;;;;;-2.17;81.84;102583.69;5092624;28;20028;-80
2021/12/21 04:33:36;;;;;;;29.37;14.17;;;;;;;-2.56;81.62;102523.09;5092882;28;20045;-79
2021/12/21 04:36:02;;;;;;;28.17;13.70;;;;;;;-2.21;81.79;102590.53;5092792;28;20028;-79
2021/12/21 04:38:32;;;;;;;30.67;14.60;;;;;;;-2.28;81.45;102568.72;5092579;28;20077;-77
2021/12/21 04:41:13;;;;;;;25.23;13.70;;;;;;;-2.18;81.44;102581.91;5073694;28;20031;-78
2021/12/21 04:43:39;;;;;;;25.13;14.57;;;;;;;-2.19;81.03;102570.63;5092716;28;20493;-78
2021/12/21 04:46:05;;;;;;;25.07;13.83;;;;;;;-2.19;81.38;102578.44;5092597;28;20052;-79
2021/12/21 04:48:31;;;;;;;31.50;13.70;;;;;;;-2.22;80.65;102573.16;5076390;28;20032;-80
2021/12/21 04:50:57;;;;;;;28.57;13.77;;;;;;;-2.49;80.92;102533.59;5092827;28;20055;-77
2021/12/21 04:53:23;;;;;;;33.90;15.27;;;;;;;-2.56;81.00;102533.50;5092525;28;20028;-78
2021/12/21 04:55:49;;;;;;;29.20;14.43;;;;;;;-2.46;81.58;102551.91;5092465;28;20428;-79
2021/12/21 04:58:15;;;;;;;30.77;14.53;;;;;;;-2.34;81.09;102576.44;5091253;28;20036;-80
2021/12/21 05:00:40;;;;;;;33.47;16.40;;;;;;;-2.33;81.31;102579.91;5088811;28;20036;-79
2021/12/21 05:03:06;;;;;;;30.13;14.50;;;;;;;-2.46;81.12;102551.91;5088160;28;20036;-78
2021/12/21 05:05:31;;;;;;;29.03;14.40;;;;;;;-2.43;81.15;102565.84;5091929;28;20020;-80
2021/12/21 05:11:03;;;;;;;35.27;14.90;;;;;;;-2.44;81.53;102573.63;5092739;28;20032;-77
2021/12/21 05:13:31;;;;;;;30.03;15.00;;;;;;;-2.43;81.19;102580.59;5092373;28;20539;-79
2021/12/21 05:15:57;;;;;;;33.13;15.87;;;;;;;-2.44;81.69;102582.34;5092329;28;20043;-78
2021/12/21 05:18:23;;;;;;;32.00;14.77;;;;;;;-2.44;81.59;102586.66;5091886;28;20107;-78
2021/12/21 05:20:49;;;;;;;35.10;15.20;;;;;;;-2.60;81.79;102546.41;5092556;28;20040;-77
2021/12/21 05:23:15;;;;;;;28.03;14.47;;;;;;;-2.54;81.85;102559.56;5091020;28;20051;-76
2021/12/21 05:25:41;;;;;;;28.20;15.53;;;;;;;-2.44;81.28;102574.53;5092408;28;20059;-80
2021/12/21 05:28:08;;;;;;;38.60;16.30;;;;;;;-2.48;81.29;102574.44;5092136;28;20378;-77
2021/12/21 05:30:34;;;;;;;35.27;15.53;;;;;;;-2.63;81.22;102549.84;5092015;28;20030;-79
2021/12/21 05:33:00;;;;;;;32.97;16.03;;;;;;;-2.54;81.44;102577.78;5092004;28;20032;-77
2021/12/21 05:35:26;;;;;;;23.53;14.53;;;;;;;-2.47;80.86;102589.19;5095963;28;20390;-78
2021/12/21 05:37:57;;;;;;;29.90;15.23;;;;;;;-2.55;81.00;102576.91;5096313;28;20028;-81
2021/12/21 05:40:30;;;;;;;30.50;15.37;;;;;;;-2.58;81.29;102566.44;5095700;28;20020;-77
2021/12/21 05:42:55;;;;;;;34.83;16.30;;;;;;;-2.81;nan;102526.06;5096025;28;20031;-77
2021/12/21 05:45:20;;;;;;;34.10;14.73;;;;;;;-2.52;81.27;102581.31;5096079;28;20479;-81
2021/12/21 05:47:45;;;;;;;30.10;15.03;;;;;;;-2.63;81.03;102562.00;5095792;28;20371;-79
2021/12/21 05:50:16;;;;;;;30.83;14.70;;;;;;;-2.58;80.82;102584.69;5093074;28;20217;-77
2021/12/21 05:52:41;;;;;;;29.90;15.47;;;;;;;-2.62;81.11;102579.34;5095937;28;20024;-76
2021/12/21 05:55:08;;;;;;;31.23;15.67;;;;;;;-2.66;81.48;102578.44;5095644;28;20043;-78
2021/12/21 05:57:33;;;;;;;32.00;15.50;;;;;;;-2.58;80.83;102591.63;5095827;28;20102;-79
2021/12/21 05:59:58;;;;;;;29.27;15.33;;;;;;;-2.66;81.22;102578.44;5095713;28;20027;-77
2021/12/21 06:02:42;;;;;;;37.10;15.93;;;;;;;-2.58;81.34;102586.41;5095731;28;20032;-78
2021/12/21 06:05:08;;;;;;;32.07;16.03;;;;;;;-2.63;81.42;102577.63;5093828;28;20043;-76
2021/12/21 06:07:34;;;;;;;31.73;15.77;;;;;;;-2.66;81.79;102580.16;5095342;28;20073;-81
2021/12/21 06:10:10;;;;;;;29.93;15.73;;;;;;;-2.79;81.20;102558.22;5095358;28;20016;-79
2021/12/21 06:15:27;;;;;;;32.57;16.20;;;;;;;-2.86;81.81;102554.59;5095688;28;20035;-79
2021/12/21 06:26:07;;;;;;;30.75;15.27;;;;;;;-2.99;81.57;102532.66;5095497;28;20093;-81
2021/12/21 06:28:33;;;;;;;34.80;16.37;;;;;;;-2.73;81.34;102583.50;5095286;28;20044;-79
2021/12/21 06:30:58;;;;;;;28.30;15.30;;;;;;;-2.89;81.83;102564.09;5092476;28;20032;-77
2021/12/21 06:33:24;;;;;;;35.77;15.10;;;;;;;-2.92;81.66;102554.47;5095407;28;20081;-79
2021/12/21 06:35:50;;;;;;;31.73;15.40;;;;;;;-2.86;81.97;102565.00;5094657;28;20036;-79
2021/12/21 06:38:15;;;;;;;32.30;15.87;;;;;;;-2.75;81.27;102578.25;5095103;28;20055;-77
2021/12/21 06:40:41;;;;;;;30.13;16.73;;;;;;;-2.98;81.52;102537.00;5093770;28;20028;-76
2021/12/21 06:43:11;;;;;;;32.17;16.97;;;;;;;-2.78;81.35;102573.00;5095008;28;20032;-76
2021/12/21 06:53:37;;;;;;;38.53;18.03;;;;;;;-3.02;81.04;102547.34;5094527;28;20061;-77
2021/12/21 06:56:04;;;;;;;33.20;16.27;;;;;;;-2.83;80.90;102579.81;5094810;28;20039;-79
2021/12/21 06:58:29;;;;;;;37.37;18.00;;;;;;;-3.02;81.25;102555.16;5094580;28;20023;-80
2021/12/21 07:00:55;;;;;;;33.70;17.03;;;;;;;-2.84;80.96;102583.28;5093342;28;20123;-78
2021/12/21 07:03:20;;;;;;;34.30;16.83;;;;;;;-2.85;81.39;102587.63;5094033;28;20027;-78
2021/12/21 07:05:48;;;;;;;35.17;17.67;;;;;;;-2.89;81.22;102577.09;5094350;28;20081;-79
2021/12/21 07:08:16;;;;;;;36.83;16.87;;;;;;;-2.94;81.68;102571.81;5090503;28;20028;-78
2021/12/21 07:10:52;;;;;;;37.10;16.37;;;;;;;-2.94;81.73;102571.81;5093840;28;20033;-78
2021/12/21 07:18:46;;;;;;;34.40;16.67;;;;;;;-3.00;81.13;102571.66;5094764;28;20086;-77
2021/12/21 07:21:12;;;;;;;37.27;16.93;;;;;;;-2.94;81.29;102599.53;5093180;28;20436;-78
2021/12/21 07:23:37;;;;;;;37.70;16.73;;;;;;;-3.03;81.40;102590.72;5092619;28;20114;-77
2021/12/21 07:26:02;;;;;;;32.63;15.97;;;;;;;-2.95;81.57;102601.28;5093376;28;20043;-79
2021/12/21 07:28:28;;;;;;;35.40;16.87;;;;;;;-3.02;81.41;102592.47;5094491;28;20050;-79
2021/12/21 07:30:54;;;;;;;39.17;16.30;;;;;;;-3.30;81.12;102538.94;5093420;28;20467;-77
2021/12/21 07:33:20;;;;;;;37.30;16.37;;;;;;;-3.10;81.22;102581.00;5093903;28;20024;-77
2021/12/21 07:35:45;;;;;;;32.83;16.70;;;;;;;-3.04;81.36;102596.75;5092054;28;20043;-79
2021/12/21 07:38:11;;;;;;;40.30;17.20;;;;;;;-3.04;81.54;102598.47;5094307;28;20043;-79
2021/12/21 07:40:38;;;;;;;41.87;16.77;;;;;;;-3.16;82.01;102578.28;5092550;28;20047;-76
2021/12/21 07:43:03;;;;;;;35.70;17.13;;;;;;;-3.11;81.69;102597.47;5093225;28;20106;-77
2021/12/21 07:45:29;;;;;;;32.10;17.23;;;;;;;-3.06;81.71;102603.66;5084567;28;20020;-78
2021/12/21 07:47:55;;;;;;;36.57;18.33;;;;;;;-3.06;81.85;102607.97;5086592;28;20033;-76
2021/12/21 07:50:21;;;;;;;36.17;16.63;;;;;;;-3.02;81.92;102607.22;5089951;28;20032;-76
2021/12/21 07:52:46;;;;;;;37.20;17.23;;;;;;;-3.15;82.18;102595.63;5093383;28;20031;-79
2021/12/21 07:55:12;;;;;;;31.37;16.77;;;;;;;-3.11;81.92;102594.00;5080441;28;20115;-80
2021/12/21 07:57:38;;;;;;;31.80;17.80;;;;;;;-3.04;82.16;102606.28;5085164;28;20135;-79
2021/12/21 08:00:06;;;;;;;38.13;17.97;;;;;;;-3.14;82.34;102588.72;5090509;28;20028;-79
2021/12/21 08:02:32;;;;;;;40.33;16.97;;;;;;;-3.26;81.98;102568.53;5087881;28;20075;-77
2021/12/21 08:04:58;;;;;;;39.30;17.63;;;;;;;-3.12;81.81;102593.09;5076343;28;20408;-77
2021/12/21 08:07:29;;;;;;;33.13;17.67;;;;;;;-3.10;81.47;102598.34;5091763;28;20039;-80
2021/12/21 08:09:55;;;;;;;32.43;17.63;;;;;;;-3.15;81.63;102589.56;5091852;28;20114;-77
2021/12/21 08:12:21;;;;;;;34.10;17.10;;;;;;;-2.98;81.61;102616.81;5081962;28;20106;-79
2021/12/21 08:14:50;;;;;;;32.27;18.47;;;;;;;-3.05;81.62;102613.22;5083934;28;20036;-78
2021/12/21 08:17:16;;;;;;;35.33;17.97;;;;;;;-2.97;81.84;102616.00;5089982;28;20111;-79
2021/12/21 08:19:42;;;;;;;36.67;17.80;;;;;;;-3.13;81.94;102582.69;5072306;28;20037;-79
2021/12/21 08:22:08;;;;;;;33.27;18.50;;;;;;;-3.15;81.49;102587.84;5046318;28;20048;-78
2021/12/21 08:24:33;;;;;;;37.30;18.23;;;;;;;-2.99;82.52;102615.94;5060001;28;20379;-80
2021/12/21 08:27:00;;;;;;;37.40;19.50;;;;;;;-2.97;82.56;102621.22;5061453;28;20031;-77
2021/12/21 08:29:28;;;;;;;37.50;18.30;;;;;;;-3.00;82.34;102608.09;5064003;28;20024;-79
2021/12/21 08:31:54;;;;;;;37.83;18.73;;;;;;;-3.34;82.44;102550.16;5063699;28;20031;-82
2021/12/21 08:34:20;;;;;;;37.70;19.83;;;;;;;-3.11;82.54;102589.66;5063211;28;20478;-79
2021/12/21 08:36:46;;;;;;;31.70;17.97;;;;;;;-2.94;82.89;102612.56;5076516;28;20439;-79
2021/12/21 08:39:11;;;;;;;40.30;19.23;;;;;;;-3.14;82.60;102571.41;5062558;28;20103;-80
2021/12/21 08:41:41;;;;;;;40.40;17.90;;;;;;;-2.87;82.39;102617.94;5062072;28;20020;-77
2021/12/21 08:44:09;;;;;;;35.88;18.88;;;;;;;-2.84;82.83;102614.53;5060501;28;20020;-80
2021/12/21 08:46:35;;;;;;;39.47;18.73;;;;;;;-3.08;82.83;102573.25;5064696;28;20115;-83
2021/12/21 08:49:00;;;;;;;35.50;17.90;;;;;;;-2.95;82.82;102593.47;5064370;28;20461;-80
2021/12/21 08:51:25;;;;;;;36.53;18.73;;;;;;;-2.90;82.96;102604.84;5065101;28;20078;-79
2021/12/21 08:53:51;;;;;;;39.70;19.47;;;;;;;-2.86;83.20;102605.78;5047456;28;20052;-80
2021/12/21 08:56:16;;;;;;;44.20;19.97;;;;;;;-2.78;83.46;102610.31;5047694;28;20076;-80
2021/12/21 08:58:42;;;;;;;38.43;19.53;;;;;;;-2.72;83.33;102621.72;5065740;28;20040;-79
2021/12/21 09:01:07;;;;;;;40.10;19.37;;;;;;;-2.69;83.71;102613.97;5047867;28;20476;-82
2021/12/21 09:03:34;;;;;;;45.53;20.97;;;;;;;-2.67;83.95;102623.56;5044328;28;20045;-79
2021/12/21 09:06:00;;;;;;;40.50;20.10;;;;;;;-2.66;83.83;102627.91;5045983;28;20094;-79
2021/12/21 09:08:25;;;;;;;37.67;20.10;;;;;;;-2.86;83.88;102585.84;5051349;28;20126;-78
2021/12/21 09:10:52;;;;;;;40.83;20.03;;;;;;;-2.60;84.75;102629.75;5067494;28;20464;-82
2021/12/21 09:13:17;;;;;;;36.70;19.27;;;;;;;-2.56;84.95;102632.47;5050731;28;20040;-83
2021/12/21 09:15:43;;;;;;;39.73;20.33;;;;;;;-2.60;84.65;102616.75;5069078;28;20036;-83
2021/12/21 09:18:09;;;;;;;40.47;19.60;;;;;;;-2.44;85.15;102626.63;5052584;28;20387;-79
2021/12/21 09:20:35;;;;;;;37.77;18.93;;;;;;;-2.41;85.07;102618.88;5071242;28;20051;-84
2021/12/21 09:23:01;;;;;;;35.60;19.70;;;;;;;-2.37;85.35;102623.28;5088985;28;20036;-79
2021/12/21 09:25:29;;;;;;;35.17;19.60;;;;;;;-2.34;84.88;102618.13;5090917;28;20024;-82
2021/12/21 09:27:56;;;;;;;38.00;19.30;;;;;;;-2.34;85.66;102599.88;5091521;28;20028;-80
2021/12/21 09:30:24;;;;;;;32.00;18.77;;;;;;;-2.22;85.44;102596.63;5091307;28;20408;-83
2021/12/21 09:32:51;;;;;;;34.03;19.50;;;;;;;-1.89;85.48;102626.72;5089927;28;20056;-79
2021/12/21 09:35:17;;;;;;;33.20;19.10;;;;;;;-1.91;85.65;102597.13;5089880;28;20301;-80
2021/12/21 09:37:42;;;;;;;35.67;20.80;;;;;;;-1.66;85.42;102621.91;5091760;28;20078;-82
2021/12/21 09:40:14;;;;;;;33.63;20.10;;;;;;;-1.69;84.67;102609.69;5091746;28;20382;-78
2021/12/21 09:42:41;;;;;;;34.70;19.23;;;;;;;-1.75;84.96;102598.28;5070413;28;20028;-80
2021/12/21 09:45:06;;;;;;;36.43;20.07;;;;;;;-1.51;84.92;102618.66;5088789;28;20029;-82
2021/12/21 09:47:32;;;;;;;38.67;19.93;;;;;;;-1.54;84.90;102595.13;5091858;28;20043;-78
2021/12/21 09:49:58;;;;;;;37.23;20.33;;;;;;;-1.41;84.30;102599.69;5092005;28;20051;-80
2021/12/21 09:52:29;;;;;;;33.97;19.70;;;;;;;-1.14;84.86;102596.59;5094213;28;20063;-82
2021/12/21 09:54:55;;;;;;;33.63;19.00;;;;;;;-0.85;83.81;102599.59;5094160;28;20467;-79
2021/12/21 09:57:21;;;;;;;38.77;18.70;;;;;;;-0.59;83.41;102597.28;5094171;28;20032;-78
2021/12/21 09:59:49;;;;;;;35.83;18.00;;;;;;;-0.24;82.00;102607.22;5094042;28;20047;-82
2021/12/21 10:02:18;;;;;;;33.53;17.90;;;;;;;-0.19;81.68;102565.44;5093140;28;20540;-80
2021/12/21 10:04:49;;;;;;;31.58;17.25;;;;;;;0.38;80.51;102613.84;5092105;28;20043;-80
2021/12/21 10:07:15;;;;;;;25.87;16.10;;;;;;;0.83;79.08;102600.22;5093518;28;20081;-79
2021/12/21 10:09:43;;;;;;;34.17;15.53;;;;;;;1.25;77.82;102600.41;5090075;28;20047;-79
2021/12/21 10:12:13;;;;;;;30.17;15.97;;;;;;;1.28;77.04;102569.84;5086577;28;20482;-79
2021/12/21 10:14:38;;;;;;;32.03;15.55;;;;;;;1.10;76.34;102564.53;5075147;28;20029;-77
2021/12/21 10:17:09;;;;;;;28.57;15.77;;;;;;;1.07;77.70;102598.59;5091466;28;20031;-80
2021/12/21 10:19:36;;;;;;;33.30;16.00;;;;;;;0.75;77.79;102588.81;5075710;28;20510;-80
2021/12/21 10:22:08;;;;;;;27.57;15.47;;;;;;;0.91;78.54;102608.09;5087731;28;20123;-79
2021/12/21 10:24:44;;;;;;;23.90;14.67;;;;;;;1.22;78.34;102603.88;5076226;28;20043;-79
2021/12/21 10:27:10;;;;;;;27.77;15.70;;;;;;;1.49;77.18;102594.38;5077584;28;20454;-78
2021/12/21 10:29:52;;;;;;;25.20;14.40;;;;;;;1.86;75.83;102591.84;5076076;28;20028;-78
2021/12/21 10:32:25;;;;;;;23.30;12.90;;;;;;;2.36;74.89;102581.34;5083757;28;20032;-78
2021/12/21 10:35:02;;;;;;;24.83;12.80;;;;;;;2.91;73.45;102593.47;5065781;28;20032;-78
2021/12/21 10:37:34;;;;;;;23.30;12.13;;;;;;;3.50;70.88;102576.56;5089835;28;20534;-79
2021/12/21 10:40:25;;;;;;;22.67;11.20;;;;;;;4.45;70.90;102567.06;5076220;28;20056;-79
2021/12/21 10:42:59;;;;;;;17.15;11.40;;;;;;;4.91;66.88;102561.28;5079205;28;20024;-82
2021/12/21 10:45:35;;;;;;;16.55;10.30;;;;;;;5.52;64.69;102572.81;5078347;28;20412;-81
2021/12/21 10:48:02;;;;;;;20.25;9.57;;;;;;;6.06;60.25;102586.97;5087513;28;20016;-79
2021/12/21 10:50:32;;;;;;;23.20;9.10;;;;;;;6.57;59.90;102584.31;5076517;28;20031;-83
2021/12/21 10:52:58;;;;;;;15.80;9.30;;;;;;;7.07;57.94;102576.31;5090708;28;20040;-82
2021/12/21 10:55:31;;;;;;;17.27;9.88;;;;;;;7.58;55.22;102581.38;5080248;28;20032;-83
2021/12/21 10:58:16;;;;;;;19.83;9.35;;;;;;;7.55;60.37;102565.56;5067625;28;20055;-81
2021/12/21 11:01:09;;;;;;;14.25;8.57;;;;;;;7.88;62.43;102578.91;5059556;28;20039;-82
2021/12/21 11:03:40;;;;;;;19.00;9.70;;;;;;;7.76;55.48;102574.78;5084165;28;20372;-79
2021/12/21 11:06:10;;;;;;;16.15;9.27;;;;;;;7.72;56.22;102579.28;5084997;28;20098;-80
2021/12/21 11:08:38;;;;;;;12.73;9.02;;;;;;;7.38;55.58;102563.31;5085037;28;20436;-81
2021/12/21 11:11:09;;;;;;;22.08;9.43;;;;;;;7.19;56.76;102577.84;5082839;28;20361;-81
2021/12/21 11:13:35;;;;;;;16.45;9.00;;;;;;;7.15;55.10;102576.16;5077309;28;20027;-83
2021/12/21 11:16:04;;;;;;;15.45;8.77;;;;;;;7.01;55.03;102574.66;5088410;28;20115;-80
2021/12/21 11:18:29;;;;;;;16.33;9.30;;;;;;;6.66;56.80;102551.56;5094243;28;20042;-79
2021/12/21 11:20:56;;;;;;;13.90;9.30;;;;;;;6.60;57.85;102576.34;5079367;28;20052;-82
2021/12/21 11:23:24;;;;;;;14.68;8.93;;;;;;;6.60;57.16;102573.69;5055651;28;20039;-80
2021/12/21 11:25:53;;;;;;;14.98;9.32;;;;;;;6.57;57.31;102568.47;5073513;28;20054;-83
2021/12/21 11:28:35;;;;;;;19.38;9.10;;;;;;;6.70;58.51;102563.81;5074536;28;20028;-79
2021/12/21 11:31:04;;;;;;;13.95;9.13;;;;;;;6.47;56.94;102539.56;5086430;28;20467;-80
2021/12/21 11:33:35;;;;;;;17.83;9.68;;;;;;;6.58;56.58;102532.31;5087417;28;20490;-80
2021/12/21 11:38:47;;;;;;;20.90;9.75;;;;;;;6.68;56.09;102518.03;5090122;28;20073;-80
2021/12/21 12:30:17;;;;;;;10.25;6.57;;;;;;;7.18;51.76;102500.22;5068206;28;20601;-77
2021/12/21 12:33:00;;;;;;;11.40;6.50;;;;;;;6.76;52.03;102509.94;5084256;28;20544;-81
2021/12/21 12:35:31;;;;;;;7.93;6.38;;;;;;;6.17;52.67;102493.47;5091332;28;20470;-80
2021/12/21 12:38:17;;;;;;;10.68;6.45;;;;;;;5.92;53.92;102507.06;5080133;28;20035;-79
2021/12/21 12:40:42;;;;;;;13.77;6.68;;;;;;;5.72;53.38;102501.25;5076957;28;20020;-81
2021/12/21 12:43:11;;;;;;;9.38;6.38;;;;;;;5.36;54.25;102479.81;5064864;28;20514;-77
2021/12/21 12:45:49;;;;;;;8.32;6.13;;;;;;;5.24;54.22;102494.06;5081569;27;20106;-80
2021/12/21 12:48:25;;;;;;;10.15;6.72;;;;;;;4.97;54.58;102468.91;5051331;28;20027;-79
2021/12/21 12:50:55;;;;;;;8.73;6.18;;;;;;;4.88;55.68;102477.84;5038652;28;20372;-77
2021/12/21 12:53:21;;;;;;;11.90;6.55;;;;;;;4.66;56.04;102452.66;5056704;28;20436;-77
2021/12/21 12:55:57;;;;;;;10.38;6.35;;;;;;;4.81;56.24;102464.75;5039141;28;20032;-79
2021/12/21 12:58:24;;;;;;;15.13;8.00;;;;;;;4.69;55.70;102444.72;5055623;28;20335;-77
2021/12/21 13:01:03;;;;;;;11.93;6.18;;;;;;;4.96;56.73;102470.69;5040340;28;20032;-79
2021/12/21 13:03:40;;;;;;;10.52;6.63;;;;;;;4.98;57.32;102450.47;5041332;28;20016;-81
2021/12/21 13:06:13;;;;;;;9.52;6.25;;;;;;;5.66;55.02;102452.94;5057053;28;20482;-80